Time;durP1;ratioP1;P1;durP2;ratioP2;P2;SDS_P1;SDS_P2;PMS_P1;PMS_P2;Temp;Humidity;BMP_temperature;BMP_pressure;BME280_temperature;BME280_humidity;BME280_pressure;Samples;Min_cycle;Max_cycle;Signal;HPM_P1;HPM_P2
2022/06/28 00:01:15;;;;;;;15.93;12.65;;;13.80;99.90;;;;;;5115402;28;20040;-74
2022/06/28 00:03:42;;;;;;;15.77;11.75;;;13.80;99.90;;;;;;5097018;28;20539;-74
2022/06/28 00:06:08;;;;;;;20.63;11.85;;;13.70;99.90;;;;;;5115420;28;20035;-73
2022/06/28 00:08:34;;;;;;;16.63;12.50;;;13.70;99.90;;;;;;5096527;28;20164;-74
2022/06/28 00:10:59;;;;;;;16.70;12.53;;;13.50;99.90;;;;;;5097523;28;20522;-74
2022/06/28 00:13:25;;;;;;;15.05;12.60;;;13.60;99.90;;;;;;5096908;28;20277;-74
2022/06/28 00:16:06;;;;;;;14.70;11.27;;;13.60;99.90;;;;;;5096547;28;20058;-74
2022/06/28 00:18:37;;;;;;;16.17;12.27;;;13.60;99.90;;;;;;5096593;28;20672;-74
2022/06/28 00:21:06;;;;;;;13.80;11.32;;;13.60;99.90;;;;;;5097403;28;20040;-75
2022/06/28 00:23:33;;;;;;;16.55;13.35;;;13.50;99.90;;;;;;5096906;28;20453;-74
2022/06/28 00:25:59;;;;;;;17.42;13.02;;;13.50;99.90;;;;;;5115543;28;20035;-74
2022/06/28 00:28:25;;;;;;;17.08;13.98;;;13.50;99.90;;;;;;5097074;28;20533;-74
2022/06/28 00:30:51;;;;;;;19.45;13.52;;;13.50;99.90;;;;;;5115270;28;20487;-75
2022/06/28 00:33:17;;;;;;;20.60;12.90;;;13.50;99.90;;;;;;5097905;28;20131;-75
2022/06/28 00:35:43;;;;;;;19.15;12.98;;;13.50;99.90;;;;;;5096844;28;20399;-75
2022/06/28 00:38:08;;;;;;;19.30;14.20;;;13.50;99.90;;;;;;5097351;28;20036;-74
2022/06/28 00:40:49;;;;;;;19.55;12.52;;;13.50;99.90;;;;;;5114816;28;20050;-75
2022/06/28 00:43:16;;;;;;;16.55;12.40;;;13.50;99.90;;;;;;5096749;28;20036;-75
2022/06/28 00:45:43;;;;;;;15.70;12.80;;;13.50;99.90;;;;;;5096417;28;20139;-74
2022/06/28 00:48:14;;;;;;;18.92;14.75;;;13.50;99.90;;;;;;5096646;28;20101;-75
2022/06/28 00:50:41;;;;;;;16.42;14.73;;;13.50;99.90;;;;;;5095162;28;20031;-74
2022/06/28 00:53:12;;;;;;;19.65;12.98;;;13.50;99.90;;;;;;5093866;28;20559;-75
2022/06/28 00:55:39;;;;;;;15.27;13.13;;;13.40;99.90;;;;;;5093459;28;20035;-74
2022/06/28 00:58:05;;;;;;;14.95;12.70;;;13.40;99.90;;;;;;5093546;28;20108;-75
2022/06/28 01:00:36;;;;;;;15.85;12.63;;;13.40;99.90;;;;;;5104919;28;20114;-74
2022/06/28 01:03:02;;;;;;;17.38;13.90;;;13.40;99.90;;;;;;5110580;28;20063;-75
2022/06/28 01:05:29;;;;;;;16.55;12.73;;;13.40;99.90;;;;;;5093579;28;20043;-73
2022/06/28 01:07:54;;;;;;;17.05;12.80;;;13.30;99.90;;;;;;5088006;28;20047;-74
2022/06/28 01:10:20;;;;;;;14.25;12.75;;;13.30;99.90;;;;;;5090897;28;20063;-75
2022/06/28 01:12:46;;;;;;;14.93;12.43;;;13.30;99.90;;;;;;5110149;28;20096;-75
2022/06/28 01:15:12;;;;;;;15.47;12.40;;;13.30;99.90;;;;;;5092964;28;20043;-74
2022/06/28 01:17:37;;;;;;;14.90;13.37;;;13.30;99.90;;;;;;5092466;28;20789;-75
2022/06/28 01:20:03;;;;;;;13.75;12.32;;;13.30;99.90;;;;;;5111428;28;20278;-74
2022/06/28 01:22:29;;;;;;;16.67;12.95;;;13.30;99.90;;;;;;5090985;28;20071;-74
2022/06/28 01:24:56;;;;;;;13.45;11.90;;;13.30;99.90;;;;;;5092877;28;20496;-75
2022/06/28 01:27:23;;;;;;;16.13;12.05;;;13.30;99.90;;;;;;5092324;28;20506;-74
2022/06/28 01:29:50;;;;;;;14.60;12.38;;;13.30;99.90;;;;;;5092583;28;20038;-75
2022/06/28 01:32:15;;;;;;;15.10;12.07;;;13.30;99.90;;;;;;5092985;28;20055;-75
2022/06/28 01:34:41;;;;;;;13.07;11.30;;;13.30;99.90;;;;;;5092708;28;20035;-74
2022/06/28 01:37:08;;;;;;;19.48;12.50;;;13.20;99.90;;;;;;5111133;28;20278;-74
2022/06/28 01:39:34;;;;;;;15.18;12.05;;;13.20;99.90;;;;;;5085445;28;20039;-74
2022/06/28 01:41:59;;;;;;;14.82;12.93;;;13.20;99.90;;;;;;5093165;28;20388;-74
2022/06/28 01:44:26;;;;;;;13.93;12.15;;;13.20;99.90;;;;;;5092392;28;20051;-75
2022/06/28 01:46:52;;;;;;;16.25;11.40;;;13.20;99.90;;;;;;5108245;28;20402;-74
2022/06/28 01:49:17;;;;;;;16.33;11.63;;;13.10;99.90;;;;;;5110787;28;20040;-74
2022/06/28 01:51:43;;;;;;;15.30;11.88;;;13.20;99.90;;;;;;5092519;28;20281;-74
2022/06/28 01:54:09;;;;;;;15.30;11.90;;;13.10;99.90;;;;;;5109503;28;20039;-74
2022/06/28 01:56:35;;;;;;;14.52;11.75;;;13.20;99.90;;;;;;5092010;28;20047;-74
2022/06/28 01:59:01;;;;;;;;;;;13.10;99.90;;;;;;5110244;28;20035;-73
2022/06/28 02:01:27;;;;;;;15.32;11.43;;;13.10;99.90;;;;;;5092408;28;19923;-75
2022/06/28 02:03:53;;;;;;;14.15;11.88;;;13.10;99.90;;;;;;5091659;28;20107;-75
2022/06/28 02:06:19;;;;;;;16.63;12.73;;;13.10;99.90;;;;;;5092294;28;20499;-75
2022/06/28 02:08:45;;;;;;;14.05;11.45;;;13.10;99.90;;;;;;5092027;28;20051;-75
2022/06/28 02:11:10;;;;;;;13.07;11.73;;;13.10;99.90;;;;;;5092320;28;20051;-74
2022/06/28 02:13:36;;;;;;;16.52;12.95;;;13.00;99.90;;;;;;5108354;28;20035;-75
2022/06/28 02:16:05;;;;;;;17.52;11.57;;;12.90;99.90;;;;;;5092209;28;20102;-75
2022/06/28 02:18:32;;;;;;;16.55;13.40;;;12.90;99.90;;;;;;5108380;28;20407;-74
2022/06/28 02:20:58;;;;;;;15.15;12.52;;;12.90;99.90;;;;;;5118521;28;20114;-71
2022/06/28 02:23:24;;;;;;;16.27;11.65;;;12.80;99.90;;;;;;5091575;28;20039;-75
2022/06/28 02:25:50;;;;;;;13.95;11.75;;;12.90;99.90;;;;;;5091925;28;20042;-76
2022/06/28 02:28:15;;;;;;;14.70;11.55;;;12.80;99.90;;;;;;5075007;28;20039;-76
2022/06/28 02:30:41;;;;;;;14.53;12.17;;;12.80;99.90;;;;;;5091556;28;20047;-75
2022/06/28 02:33:07;;;;;;;18.90;11.87;;;12.80;99.90;;;;;;5092120;28;20707;-75
2022/06/28 02:41:00;;;;;;;14.65;11.02;;;12.80;99.90;;;;;;5091717;28;20043;-74
2022/06/28 02:43:26;;;;;;;13.40;10.90;;;12.80;99.90;;;;;;5109547;28;20043;-75
2022/06/28 02:45:52;;;;;;;13.67;11.50;;;12.80;99.90;;;;;;5091475;28;20282;-75
2022/06/28 02:48:19;;;;;;;17.48;12.00;;;12.70;99.90;;;;;;5091920;28;20078;-74
2022/06/28 02:50:44;;;;;;;17.55;12.90;;;12.70;99.90;;;;;;5090809;28;20039;-74
2022/06/28 02:53:10;;;;;;;14.20;11.87;;;12.70;99.90;;;;;;5091395;28;20572;-74
2022/06/28 02:55:36;;;;;;;20.00;13.43;;;12.60;99.90;;;;;;5091009;28;20511;-74
2022/06/28 02:58:02;;;;;;;18.05;13.30;;;12.60;99.90;;;;;;5091398;28;20057;-74
2022/06/28 03:00:28;;;;;;;14.32;11.85;;;12.60;99.90;;;;;;5090537;28;20027;-74
2022/06/28 03:02:54;;;;;;;16.02;11.98;;;12.60;99.90;;;;;;5071893;28;20114;-74
2022/06/28 03:05:21;;;;;;;16.90;12.33;;;12.50;99.90;;;;;;5109438;28;20471;-75
2022/06/28 03:07:47;;;;;;;17.75;11.68;;;12.50;99.90;;;;;;5090650;28;20313;-75
2022/06/28 03:10:15;;;;;;;17.65;13.30;;;12.40;99.90;;;;;;5092216;28;20033;-75
2022/06/28 03:12:41;;;;;;;15.02;12.57;;;12.40;99.90;;;;;;5088170;28;20040;-74
2022/06/28 03:15:08;;;;;;;17.48;13.43;;;12.30;99.90;;;;;;5088129;28;20050;-74
2022/06/28 03:17:34;;;;;;;15.48;12.20;;;12.30;99.90;;;;;;5070621;28;20040;-75
2022/06/28 03:20:00;;;;;;;17.40;12.45;;;12.30;99.90;;;;;;5070911;28;20094;-75
2022/06/28 03:22:26;;;;;;;17.60;13.30;;;12.30;99.90;;;;;;5088360;28;20097;-74
2022/06/28 03:24:52;;;;;;;14.50;11.68;;;12.30;99.90;;;;;;5070639;28;20433;-75
2022/06/28 03:27:17;;;;;;;17.57;13.00;;;12.30;99.90;;;;;;5071312;28;20040;-75
2022/06/28 03:29:43;;;;;;;18.40;11.77;;;12.30;99.90;;;;;;5070180;28;20274;-74
2022/06/28 03:32:08;;;;;;;13.77;11.77;;;12.30;99.90;;;;;;5054463;28;20036;-73
2022/06/28 03:34:34;;;;;;;17.10;11.65;;;12.30;99.90;;;;;;5070383;28;20039;-74
2022/06/28 03:37:00;;;;;;;13.70;11.98;;;12.20;99.90;;;;;;5088446;28;20032;-73
2022/06/28 03:39:25;;;;;;;15.02;12.05;;;12.20;99.90;;;;;;5070786;28;20119;-75
2022/06/28 03:41:51;;;;;;;13.88;10.80;;;12.20;99.90;;;;;;5053687;28;20040;-75
2022/06/28 03:44:17;;;;;;;20.45;13.18;;;12.20;99.90;;;;;;5053549;28;20039;-74
2022/06/28 03:46:43;;;;;;;16.13;12.48;;;12.20;99.90;;;;;;5070160;28;20086;-75
2022/06/28 03:49:08;;;;;;;17.65;12.30;;;12.20;99.90;;;;;;5071042;28;20043;-74
2022/06/28 03:51:34;;;;;;;17.50;12.43;;;12.20;99.90;;;;;;5070312;28;20044;-75
2022/06/28 03:53:59;;;;;;;15.47;12.13;;;12.20;99.90;;;;;;5069973;28;20293;-75
2022/06/28 03:56:26;;;;;;;12.77;11.43;;;12.20;99.90;;;;;;5070184;28;20032;-74
2022/06/28 03:58:53;;;;;;;14.98;11.48;;;12.20;99.90;;;;;;5070377;28;20068;-75
2022/06/28 04:01:18;;;;;;;16.80;11.38;;;12.20;99.90;;;;;;5087579;28;20581;-74
2022/06/28 04:03:44;;;;;;;15.87;12.37;;;12.20;99.90;;;;;;5069584;28;20127;-74
2022/06/28 04:06:10;;;;;;;18.87;13.27;;;12.20;99.90;;;;;;5088554;28;20301;-75
2022/06/28 04:08:35;;;;;;;17.20;12.77;;;12.20;99.90;;;;;;5070389;28;20047;-74
2022/06/28 04:11:22;;;;;;;18.20;12.43;;;12.20;99.90;;;;;;5088136;28;20045;-74
2022/06/28 04:13:50;;;;;;;17.35;12.50;;;12.20;99.90;;;;;;5076572;28;20339;-75
2022/06/28 04:16:17;;;;;;;15.95;12.43;;;12.20;99.90;;;;;;5090297;28;20047;-76
2022/06/28 04:18:46;;;;;;;16.20;12.68;;;12.20;99.90;;;;;;5075891;28;20253;-75
2022/06/28 04:21:14;;;;;;;19.15;12.70;;;12.20;99.90;;;;;;5070290;28;20067;-74
2022/06/28 04:23:40;;;;;;;15.27;12.07;;;12.20;99.90;;;;;;5069890;28;20036;-74
2022/06/28 04:26:06;;;;;;;14.80;12.07;;;12.20;99.90;;;;;;5070290;28;20036;-75
2022/06/28 04:28:32;;;;;;;19.70;12.93;;;12.20;99.90;;;;;;5060950;28;20097;-74
2022/06/28 04:30:59;;;;;;;16.60;12.63;;;12.20;99.90;;;;;;5110296;28;20049;-74
2022/06/28 04:33:26;;;;;;;16.98;12.05;;;12.20;99.90;;;;;;5093968;28;20040;-75
2022/06/28 04:35:52;;;;;;;18.92;12.38;;;12.30;99.90;;;;;;5093412;28;20050;-75
2022/06/28 04:38:18;;;;;;;16.45;12.45;;;12.30;99.90;;;;;;5112286;28;20075;-74
2022/06/28 04:40:43;;;;;;;19.40;12.20;;;12.30;99.90;;;;;;5093462;28;20074;-74
2022/06/28 04:43:09;;;;;;;15.45;12.27;;;12.40;99.90;;;;;;5094323;28;20118;-74
2022/06/28 04:45:35;;;;;;;18.98;11.85;;;12.40;99.90;;;;;;5093478;28;20050;-75
2022/06/28 04:48:01;;;;;;;18.08;11.45;;;12.40;99.90;;;;;;5076740;28;20051;-75
2022/06/28 04:50:26;;;;;;;17.25;12.90;;;12.40;99.90;;;;;;5112034;28;20027;-74
2022/06/28 04:52:52;;;;;;;16.60;12.02;;;12.50;99.90;;;;;;5111615;28;20043;-74
2022/06/28 04:55:18;;;;;;;17.03;12.43;;;12.50;99.90;;;;;;5093699;28;20035;-74
2022/06/28 04:57:44;;;;;;;19.25;12.90;;;12.60;99.90;;;;;;5111350;28;20281;-74
2022/06/28 05:00:11;;;;;;;16.88;12.00;;;12.60;99.90;;;;;;5094280;28;20134;-75
2022/06/28 05:02:38;;;;;;;17.73;11.60;;;12.70;99.90;;;;;;5094591;28;20042;-74
2022/06/28 05:05:06;;;;;;;16.02;11.68;;;12.70;99.90;;;;;;5094116;28;20038;-75
2022/06/28 05:07:34;;;;;;;19.45;12.13;;;12.80;99.90;;;;;;5091924;28;20043;-76
2022/06/28 05:10:00;;;;;;;15.27;11.75;;;12.90;99.90;;;;;;5094112;28;20042;-75
2022/06/28 05:12:26;;;;;;;15.75;11.35;;;12.90;99.90;;;;;;5112541;28;20039;-74
2022/06/28 05:14:52;;;;;;;15.73;10.93;;;13.00;99.90;;;;;;5076522;28;20028;-75
2022/06/28 05:17:18;;;;;;;16.80;10.88;;;13.10;99.90;;;;;;5077644;28;20536;-74
2022/06/28 05:19:44;;;;;;;16.83;11.88;;;13.10;99.90;;;;;;5093724;28;20031;-74
2022/06/28 05:22:10;;;;;;;15.00;10.57;;;13.20;99.90;;;;;;5094262;28;20126;-75
2022/06/28 05:24:36;;;;;;;14.45;11.00;;;13.30;99.90;;;;;;5088720;28;20429;-74
2022/06/28 05:27:03;;;;;;;15.45;10.38;;;13.30;99.90;;;;;;5110767;28;20039;-75
2022/06/28 05:29:29;;;;;;;17.80;11.15;;;13.40;99.90;;;;;;5093849;28;20124;-74
2022/06/28 05:31:55;;;;;;;11.82;9.57;;;13.60;99.90;;;;;;5093272;28;20112;-74
2022/06/28 05:34:21;;;;;;;15.50;10.40;;;13.70;99.90;;;;;;5093765;28;20040;-74
2022/06/28 05:36:47;;;;;;;15.13;9.98;;;13.90;99.90;;;;;;5088986;28;20144;-74
2022/06/28 05:39:12;;;;;;;11.50;9.27;;;14.10;99.90;;;;;;5077123;28;20036;-74
2022/06/28 05:41:38;;;;;;;15.00;10.30;;;14.20;99.90;;;;;;5076895;28;20384;-74
2022/06/28 05:44:04;;;;;;;10.25;9.18;;;14.40;99.90;;;;;;5093700;28;20067;-74
2022/06/28 05:46:31;;;;;;;10.82;9.13;;;14.60;99.90;;;;;;5113316;28;20046;-74
2022/06/28 05:48:56;;;;;;;11.15;9.13;;;14.80;99.90;;;;;;5109874;28;20043;-75
2022/06/28 05:51:22;;;;;;;11.05;8.60;;;14.90;99.90;;;;;;5093475;28;21043;-74
2022/06/28 05:53:48;;;;;;;12.38;9.13;;;15.10;99.90;;;;;;5111430;28;20036;-75
2022/06/28 05:56:13;;;;;;;12.57;7.75;;;15.20;99.90;;;;;;5076657;28;20067;-75
2022/06/28 05:58:39;;;;;;;11.95;7.53;;;15.40;99.90;;;;;;5092866;28;20087;-75
2022/06/28 06:01:05;;;;;;;8.45;6.82;;;15.50;99.90;;;;;;5109000;28;20042;-74
2022/06/28 06:03:32;;;;;;;10.60;7.72;;;15.60;99.90;;;;;;5093272;28;20503;-74
2022/06/28 06:05:57;;;;;;;10.32;6.60;;;15.60;99.90;;;;;;5092371;28;20035;-74
2022/06/28 06:08:23;;;;;;;10.32;5.72;;;15.80;99.90;;;;;;5093047;28;20036;-74
2022/06/28 06:10:48;;;;;;;12.23;6.15;;;16.30;99.90;;;;;;5076076;28;20035;-74
2022/06/28 06:13:14;;;;;;;8.15;5.18;;;16.80;99.90;;;;;;5093153;28;20044;-75
2022/06/28 06:15:40;;;;;;;10.20;4.50;;;17.10;99.90;;;;;;5092816;28;20043;-75
2022/06/28 06:18:06;;;;;;;9.50;4.57;;;17.60;99.90;;;;;;5114345;28;20031;-74
2022/06/28 06:20:31;;;;;;;8.27;4.22;;;17.90;99.90;;;;;;5096548;28;20039;-74
2022/06/28 06:22:57;;;;;;;6.88;3.85;;;18.20;99.90;;;;;;5092619;28;20476;-74
2022/06/28 06:25:23;;;;;;;10.80;4.40;;;18.40;99.90;;;;;;5083011;28;20031;-74
2022/06/28 06:27:48;;;;;;;7.43;4.00;;;18.60;99.90;;;;;;5075387;28;20404;-75
2022/06/28 06:30:14;;;;;;;6.95;3.70;;;18.80;99.90;;;;;;5111201;28;20395;-74
2022/06/28 06:32:40;;;;;;;9.35;3.97;;;18.90;99.90;;;;;;5095393;28;20116;-75
2022/06/28 06:35:07;;;;;;;6.07;3.22;;;19.00;99.90;;;;;;5110799;28;20132;-75
2022/06/28 06:37:32;;;;;;;7.97;3.40;;;19.10;99.90;;;;;;5092653;28;20043;-75
2022/06/28 06:39:58;;;;;;;9.35;3.00;;;19.40;99.90;;;;;;5092152;28;20038;-75
2022/06/28 06:42:24;;;;;;;5.05;3.13;;;19.50;99.90;;;;;;5092736;28;20127;-74
2022/06/28 06:44:50;;;;;;;6.53;3.10;;;19.50;99.90;;;;;;5091957;28;20040;-75
2022/06/28 06:47:16;;;;;;;8.50;3.50;;;19.40;99.90;;;;;;5092363;28;20097;-75
2022/06/28 06:49:41;;;;;;;7.05;3.10;;;19.70;99.90;;;;;;5091801;28;20051;-74
2022/06/28 06:52:07;;;;;;;7.43;3.00;;;19.80;99.90;;;;;;5107543;28;20119;-75
2022/06/28 06:54:33;;;;;;;7.20;3.05;;;19.80;99.90;;;;;;5075511;28;20039;-74
2022/06/28 06:56:58;;;;;;;7.63;3.15;;;20.00;99.90;;;;;;5092536;28;20036;-74
2022/06/28 06:59:24;;;;;;;6.72;3.30;;;20.20;99.90;;;;;;5092204;28;20075;-74
2022/06/28 07:01:50;;;;;;;11.13;3.20;;;20.10;99.90;;;;;;5091320;28;20133;-74
2022/06/28 07:04:16;;;;;;;10.02;2.95;;;20.00;99.90;;;;;;5092238;28;20051;-74
2022/06/28 07:06:42;;;;;;;7.85;2.70;;;20.00;99.90;;;;;;5078340;28;20043;-73
2022/06/28 07:09:07;;;;;;;;;;;20.20;99.90;;;;;;5092694;28;20510;-74
2022/06/28 07:11:34;;;;;;;7.63;2.97;;;20.50;99.90;;;;;;5092084;28;19916;-74
2022/06/28 07:14:01;;;;;;;8.20;2.67;;;20.50;99.90;;;;;;5076396;28;20047;-73
2022/06/28 07:16:26;;;;;;;8.25;2.40;;;20.80;99.90;;;;;;5091847;28;20047;-74
2022/06/28 07:18:52;;;;;;;10.52;2.80;;;21.00;99.90;;;;;;5093959;28;20035;-74
2022/06/28 07:21:18;;;;;;;9.07;2.45;;;21.10;99.90;;;;;;5092244;28;20475;-74
2022/06/28 07:23:44;;;;;;;5.38;2.25;;;21.20;99.90;;;;;;5091906;28;20047;-74
2022/06/28 07:26:10;;;;;;;6.93;2.17;;;21.30;99.90;;;;;;5091743;28;20039;-74
2022/06/28 07:28:36;;;;;;;7.70;2.13;;;21.30;99.90;;;;;;5109090;28;20407;-75
2022/06/28 07:31:02;;;;;;;7.47;2.50;;;21.40;99.90;;;;;;5091358;28;20039;-74
2022/06/28 07:33:28;;;;;;;10.13;2.35;;;21.50;99.90;;;;;;5092051;28;20066;-74
2022/06/28 07:35:54;;;;;;;7.85;2.10;;;21.60;99.90;;;;;;5074550;28;20039;-74
2022/06/28 07:38:20;;;;;;;6.45;1.75;;;21.90;99.90;;;;;;5092618;28;20394;-75
2022/06/28 07:40:45;;;;;;;6.13;1.35;;;22.00;99.90;;;;;;5093439;28;20035;-75
2022/06/28 07:43:11;;;;;;;;;;;21.80;99.90;;;;;;5110351;28;20042;-74
2022/06/28 07:45:39;;;;;;;7.70;1.67;;;21.80;99.90;;;;;;5091652;28;20371;-74
2022/06/28 07:48:07;;;;;;;8.15;1.70;;;21.80;99.90;;;;;;5075077;28;20112;-74
2022/06/28 07:53:19;;;;;;;7.55;1.33;;;22.50;99.90;;;;;;5091785;28;20081;-74
2022/06/28 07:55:47;;;;;;;6.82;1.10;;;22.90;99.90;;;;;;5075275;28;20051;-74
2022/06/28 07:58:13;;;;;;;;;;;23.10;99.90;;;;;;5109704;28;20064;-73
2022/06/28 08:00:39;;;;;;;5.80;0.88;;;23.30;99.90;;;;;;5093558;28;19942;-75
2022/06/28 08:03:05;;;;;;;6.05;1.10;;;23.00;99.90;;;;;;5095056;28;20100;-74
2022/06/28 08:05:31;;;;;;;6.03;1.20;;;22.70;99.90;;;;;;5095873;28;20086;-74
2022/06/28 08:07:56;;;;;;;;;;;22.20;99.90;;;;;;5113486;28;20067;-74
2022/06/28 08:10:22;;;;;;;5.93;0.90;;;21.80;99.90;;;;;;5095363;28;19915;-74
2022/06/28 08:12:48;;;;;;;4.65;1.08;;;21.90;99.90;;;;;;5088028;28;20031;-74
2022/06/28 08:15:13;;;;;;;6.60;1.45;;;22.20;99.90;;;;;;5094918;28;20071;-74
2022/06/28 08:17:39;;;;;;;6.63;1.10;;;22.70;99.90;;;;;;5078513;28;20043;-74
2022/06/28 08:20:06;;;;;;;4.93;0.98;;;22.70;99.90;;;;;;5112908;28;20043;-74
2022/06/28 08:22:31;;;;;;;6.30;1.25;;;23.00;99.90;;;;;;5095046;28;20035;-74
2022/06/28 08:24:57;;;;;;;;;;;23.30;99.90;;;;;;5096931;28;20032;-74
2022/06/28 08:27:23;;;;;;;6.63;1.33;;;23.60;99.90;;;;;;5095105;28;19958;-74
2022/06/28 08:29:48;;;;;;;;;;;23.90;99.90;;;;;;5078534;28;20164;-74
2022/06/28 08:32:16;;;;;;;6.35;1.02;;;23.90;99.90;;;;;;5094602;28;20497;-74
2022/06/28 08:34:42;;;;;;;3.65;0.70;;;24.20;99.90;;;;;;5111905;28;20047;-74
2022/06/28 08:37:07;;;;;;;;;;;24.40;99.90;;;;;;5094824;28;20040;-73
2022/06/28 08:39:33;;;;;;;5.15;0.80;;;24.60;99.90;;;;;;5095264;28;20016;-74
2022/06/28 08:42:01;;;;;;;;;;;24.90;99.90;;;;;;5094906;28;20043;-74
2022/06/28 08:44:30;;;;;;;4.38;0.60;;;25.00;99.90;;;;;;5113042;28;20132;-74
2022/06/28 08:46:56;;;;;;;5.88;0.75;;;25.10;99.90;;;;;;5094264;28;20407;-75
2022/06/28 08:49:33;;;;;;;2.05;0.57;;;24.90;99.90;;;;;;5113373;28;20031;-73
2022/06/28 08:51:59;;;;;;;3.72;0.85;;;25.00;99.90;;;;;;5112298;28;20491;-74
2022/06/28 08:54:26;;;;;;;6.63;1.00;;;25.10;99.90;;;;;;5094310;28;20123;-74
2022/06/28 08:56:53;;;;;;;4.60;0.90;;;25.20;99.90;;;;;;5092876;28;20488;-72
2022/06/28 08:59:19;;;;;;;3.35;0.70;;;25.20;99.90;;;;;;5095630;28;20055;-74
2022/06/28 09:01:45;;;;;;;2.47;0.60;;;25.30;99.90;;;;;;5094088;28;20040;-74
2022/06/28 09:04:11;;;;;;;5.10;0.88;;;25.30;99.90;;;;;;5093751;28;20047;-74
2022/06/28 09:06:37;;;;;;;4.95;0.80;;;25.40;99.90;;;;;;5094447;28;20103;-73
2022/06/28 09:09:03;;;;;;;4.22;0.82;;;25.60;99.90;;;;;;5095527;28;20043;-74
2022/06/28 09:11:41;;;;;;;4.55;0.90;;;25.60;99.90;;;;;;5094681;28;20368;-75
2022/06/28 09:14:29;;;;;;;4.88;0.85;;;25.80;99.90;;;;;;5093630;28;20043;-73
2022/06/28 09:16:56;;;;;;;5.15;0.95;;;25.80;99.90;;;;;;5094248;28;20089;-74
2022/06/28 09:19:38;;;;;;;4.88;1.08;;;26.00;99.90;;;;;;5075521;28;20101;-74
2022/06/28 09:22:04;;;;;;;5.47;0.70;;;26.00;99.90;;;;;;5073260;28;20120;-73
2022/06/28 09:24:31;;;;;;;4.07;0.90;;;26.00;99.90;;;;;;5073704;28;20039;-74
2022/06/28 09:27:04;;;;;;;4.45;0.77;;;26.20;99.90;;;;;;5091355;28;20055;-74
2022/06/28 09:29:44;;;;;;;5.03;1.27;;;26.10;99.90;;;;;;5073646;28;20119;-73
2022/06/28 09:32:10;;;;;;;4.45;0.85;;;25.60;99.90;;;;;;5073360;28;20101;-74
2022/06/28 09:34:40;;;;;;;8.65;0.80;;;25.30;99.90;;;;;;5091712;28;20483;-74
2022/06/28 09:37:06;;;;;;;3.95;1.00;;;24.90;99.90;;;;;;5072914;28;20036;-73
2022/06/28 09:39:31;;;;;;;;;;;24.30;99.90;;;;;;5074354;28;20046;-74
2022/06/28 09:41:59;;;;;;;6.25;0.80;;;23.90;99.90;;;;;;5073181;28;20401;-74
2022/06/28 09:44:29;;;;;;;4.40;0.90;;;23.60;99.90;;;;;;5073628;28;20055;-74
2022/06/28 09:46:57;;;;;;;4.82;1.20;;;23.40;99.90;;;;;;5073286;28;20130;-74
2022/06/28 09:49:29;;;;;;;6.75;1.38;;;23.20;99.90;;;;;;5083051;28;20051;-75
2022/06/28 09:51:58;;;;;;;4.65;0.98;;;23.10;99.90;;;;;;5093525;28;20138;-74
2022/06/28 09:54:26;;;;;;;5.38;0.95;;;23.20;99.90;;;;;;5093589;28;20036;-74
2022/06/28 09:56:54;;;;;;;7.57;1.10;;;23.40;99.90;;;;;;5092937;28;20044;-74
2022/06/28 09:59:25;;;;;;;8.40;0.90;;;23.50;99.90;;;;;;5110228;28;20407;-74
2022/06/28 10:01:52;;;;;;;4.13;0.80;;;23.50;99.90;;;;;;5107616;28;20107;-74
2022/06/28 10:04:19;;;;;;;4.38;1.05;;;23.40;99.90;;;;;;5092846;28;20047;-74
2022/06/28 10:06:46;;;;;;;7.43;1.02;;;23.20;99.90;;;;;;5111071;28;20046;-74
2022/06/28 10:09:12;;;;;;;7.53;0.98;;;22.90;99.90;;;;;;5092661;28;20055;-74
2022/06/28 10:17:28;;;;;;;6.18;1.10;;;22.80;99.90;;;;;;5092495;28;20152;-73
2022/06/28 10:19:57;;;;;;;6.20;1.00;;;23.30;99.90;;;;;;5092725;28;20039;-73
2022/06/28 10:22:23;;;;;;;4.63;1.02;;;23.70;99.90;;;;;;5092900;28;20143;-74
2022/06/28 10:24:48;;;;;;;;;;;24.10;99.90;;;;;;5093321;28;20054;-73
2022/06/28 10:27:14;;;;;;;4.35;0.95;;;24.20;99.90;;;;;;5092719;28;19951;-73
2022/06/28 10:29:58;;;;;;;;;;;24.50;99.90;;;;;;5093436;28;20039;-75
2022/06/28 10:32:45;;;;;;;5.57;1.13;;;24.60;99.90;;;;;;5092593;28;19915;-73
2022/06/28 10:35:31;;;;;;;3.88;0.80;;;24.60;99.90;;;;;;5092212;28;20093;-74
2022/06/28 10:38:09;;;;;;;6.63;1.30;;;24.70;99.90;;;;;;5068290;28;20159;-74
2022/06/28 10:40:50;;;;;;;4.25;0.90;;;25.20;99.90;;;;;;5075887;28;20035;-73
2022/06/28 10:43:44;;;;;;;5.90;0.80;;;25.40;99.90;;;;;;5092543;28;20122;-73
2022/06/28 10:46:10;;;;;;;4.22;1.02;;;25.50;99.60;;;;;;5092212;28;20096;-73
2022/06/28 10:48:48;;;;;;;4.60;1.00;;;25.30;99.90;;;;;;5092344;28;20075;-73
2022/06/28 10:51:14;;;;;;;7.53;1.00;;;25.00;99.80;;;;;;5092905;28;20483;-75
2022/06/28 10:54:00;;;;;;;3.15;0.82;;;24.90;99.50;;;;;;5090598;28;20047;-74
2022/06/28 10:56:27;;;;;;;4.82;1.08;;;24.60;99.70;;;;;;5092038;28;20044;-74
2022/06/28 10:58:53;;;;;;;8.75;1.70;;;24.50;99.80;;;;;;5091834;28;20056;-74
2022/06/28 11:01:18;;;;;;;;;;;24.40;99.90;;;;;;5091095;28;20044;-74
2022/06/28 11:04:11;;;;;;;4.97;0.95;;;24.40;99.90;;;;;;5092268;28;19916;-74
2022/06/28 11:06:46;;;;;;;5.90;1.05;;;24.40;99.90;;;;;;5070176;28;20082;-73
2022/06/28 11:09:43;;;;;;;6.07;1.23;;;24.30;99.90;;;;;;5088668;28;20369;-73
2022/06/28 11:12:27;;;;;;;5.13;1.10;;;24.40;99.90;;;;;;5055738;28;20154;-74
2022/06/28 11:14:55;;;;;;;9.48;1.65;;;25.00;99.90;;;;;;5091832;28;20042;-73
2022/06/28 11:17:26;;;;;;;5.53;1.30;;;25.40;99.90;;;;;;5108559;28;20084;-73
2022/06/28 11:19:55;;;;;;;6.00;1.00;;;25.60;99.90;;;;;;5091690;28;20054;-74
2022/06/28 11:22:27;;;;;;;4.32;1.00;;;25.50;99.90;;;;;;5091464;28;20050;-74
2022/06/28 11:24:55;;;;;;;4.45;1.00;;;25.40;99.90;;;;;;5108789;28;20500;-74
2022/06/28 11:27:24;;;;;;;5.53;0.80;;;25.50;99.90;;;;;;5108683;28;20620;-74
2022/06/28 11:30:02;;;;;;;3.38;0.77;;;25.60;99.90;;;;;;5108479;28;20043;-74
2022/06/28 11:32:31;;;;;;;3.17;0.93;;;25.90;98.50;;;;;;5081457;28;20039;-74
2022/06/28 11:35:16;;;;;;;10.45;1.10;;;25.90;98.90;;;;;;5086817;28;20044;-73
2022/06/28 11:37:57;;;;;;;5.57;1.08;;;25.90;98.30;;;;;;5108717;28;20073;-73
2022/06/28 11:40:38;;;;;;;5.68;0.80;;;25.70;99.20;;;;;;5108306;28;20094;-74
2022/06/28 11:43:06;;;;;;;6.13;1.10;;;25.30;99.80;;;;;;5109584;28;20050;-73
2022/06/28 11:45:38;;;;;;;3.65;0.90;;;25.10;99.60;;;;;;5109540;28;20473;-74
2022/06/28 11:48:05;;;;;;;5.13;1.00;;;25.00;99.10;;;;;;5108965;28;20027;-73
2022/06/28 11:50:49;;;;;;;4.30;0.93;;;25.00;99.50;;;;;;5091173;28;20043;-73
2022/06/28 11:53:16;;;;;;;5.47;0.75;;;25.20;99.10;;;;;;5090554;28;20077;-73
2022/06/28 11:55:53;;;;;;;4.45;1.42;;;25.40;98.20;;;;;;5091602;28;20035;-72
2022/06/28 11:58:37;;;;;;;4.60;0.95;;;25.60;98.50;;;;;;5091052;28;20047;-73
2022/06/28 12:01:08;;;;;;;3.67;0.50;;;25.80;97.70;;;;;;5074543;28;20079;-73
2022/06/28 12:03:53;;;;;;;6.07;0.80;;;26.10;97.10;;;;;;5108372;28;20035;-74
2022/06/28 12:06:22;;;;;;;4.68;0.80;;;26.40;97.80;;;;;;5091123;28;20044;-74
2022/06/28 12:08:49;;;;;;;6.40;0.90;;;26.80;98.00;;;;;;5108458;28;20487;-73
2022/06/28 12:11:27;;;;;;;2.85;0.60;;;26.60;97.10;;;;;;5109371;28;20087;-73
2022/06/28 12:13:58;;;;;;;6.93;0.98;;;26.70;97.40;;;;;;5109535;28;20051;-74
2022/06/28 12:16:28;;;;;;;4.38;0.60;;;26.90;96.80;;;;;;5090802;28;20092;-74
2022/06/28 12:18:55;;;;;;;4.22;0.80;;;27.00;96.90;;;;;;5109945;28;20038;-72
2022/06/28 12:21:21;;;;;;;3.83;0.68;;;27.20;96.80;;;;;;5071308;28;20446;-73
2022/06/28 12:23:52;;;;;;;3.17;0.77;;;27.20;96.60;;;;;;5079625;28;20047;-74
2022/06/28 12:26:18;;;;;;;4.88;0.90;;;27.40;94.70;;;;;;5067436;28;20381;-73
2022/06/28 12:28:44;;;;;;;5.18;0.90;;;27.20;95.30;;;;;;5090677;28;20043;-74
2022/06/28 12:31:10;;;;;;;2.50;0.50;;;27.60;95.30;;;;;;5091269;28;20043;-74
2022/06/28 12:33:36;;;;;;;5.13;0.75;;;27.90;96.10;;;;;;5091066;28;20032;-74
2022/06/28 12:36:02;;;;;;;3.65;0.80;;;28.00;95.20;;;;;;5074921;28;20047;-73
2022/06/28 12:38:28;;;;;;;3.75;0.80;;;27.90;94.30;;;;;;5109789;28;20107;-74
2022/06/28 12:40:53;;;;;;;5.68;1.08;;;28.10;95.20;;;;;;5057431;28;20067;-74
2022/06/28 12:43:19;;;;;;;5.32;0.57;;;28.00;94.40;;;;;;5090777;28;20311;-73
2022/06/28 12:45:45;;;;;;;2.38;0.45;;;28.10;94.70;;;;;;5091445;28;20058;-73
2022/06/28 12:48:11;;;;;;;4.22;0.85;;;28.10;94.80;;;;;;5093523;28;20043;-74
2022/06/28 12:50:36;;;;;;;2.67;0.63;;;28.20;94.50;;;;;;5094436;28;20039;-74
2022/06/28 12:53:02;;;;;;;3.80;0.73;;;28.30;94.20;;;;;;5112884;28;20475;-73
2022/06/28 12:55:28;;;;;;;4.03;0.70;;;28.20;95.00;;;;;;5093051;28;20048;-73
2022/06/28 12:57:53;;;;;;;3.58;0.70;;;28.30;94.40;;;;;;5077302;28;20067;-73